Time;durP1;ratioP1;P1;durP2;ratioP2;P2;SDS_P1;SDS_P2;PMS_P1;PMS_P2;Temp;Humidity;BMP_temperature;BMP_pressure;BME280_temperature;BME280_humidity;BME280_pressure;Samples;Min_cycle;Max_cycle;Signal;HPM_P1;HPM_P2
2022/08/24 00:01:02;;;;;;;49.78;39.58;;;;;;;19.09;94.62;101618.50;5060896;28;20024;-69
2022/08/24 00:03:28;;;;;;;51.53;40.28;;;;;;;19.07;94.52;101627.13;5059323;28;20024;-68
2022/08/24 00:05:53;;;;;;;50.40;41.10;;;;;;;19.05;94.62;101617.38;5061316;28;20028;-69
2022/08/24 00:08:19;;;;;;;53.42;42.00;;;;;;;19.04;94.84;101613.75;5061855;28;20091;-69
2022/08/24 00:10:45;;;;;;;60.65;44.72;;;;;;;19.04;95.80;101618.47;5061498;28;20025;-69
2022/08/24 00:13:11;;;;;;;63.83;43.80;;;;;;;19.05;95.67;101618.19;5060856;28;20044;-69
2022/08/24 00:15:36;;;;;;;57.58;43.00;;;;;;;19.11;95.63;101621.84;5061019;28;20025;-69
2022/08/24 00:18:02;;;;;;;59.00;44.28;;;;;;;19.06;95.02;101625.47;5048427;28;20029;-69
2022/08/24 00:20:28;;;;;;;56.45;44.05;;;;;;;19.04;95.03;101633.22;5021799;28;20353;-68
2022/08/24 00:22:53;;;;;;;55.60;42.72;;;;;;;18.97;94.38;101629.84;5019996;28;20018;-69
2022/08/24 00:25:19;;;;;;;54.25;42.40;;;;;;;18.95;95.01;101631.22;5021956;28;20160;-69
2022/08/24 00:27:45;;;;;;;57.95;42.45;;;;;;;18.89;95.12;101630.34;5020359;28;20037;-69
2022/08/24 00:30:14;;;;;;;58.30;43.65;;;;;;;18.86;95.53;101636.47;5021297;28;20029;-69
2022/08/24 00:32:40;;;;;;;63.63;44.25;;;;;;;18.81;95.12;101633.66;5020867;28;20044;-69
2022/08/24 00:35:06;;;;;;;51.20;36.05;;;;;;;18.71;93.98;101641.91;5039226;28;20112;-69
2022/08/24 00:37:32;;;;;;;52.90;38.00;;;;;;;18.59;94.35;101642.88;5041131;28;20025;-69
2022/08/24 00:39:58;;;;;;;48.20;36.15;;;;;;;18.52;94.14;101641.44;5040377;28;20025;-69
2022/08/24 00:42:24;;;;;;;45.72;36.75;;;;;;;18.47;94.73;101638.59;5040567;28;20025;-68
2022/08/24 00:44:49;;;;;;;62.63;44.97;;;;;;;18.47;96.20;101631.09;5041644;28;20028;-69
2022/08/24 00:47:24;;;;;;;59.90;43.25;;;;;;;18.61;96.50;101639.84;5040768;28;20021;-69
2022/08/24 00:49:57;;;;;;;61.08;44.17;;;;;;;18.62;96.34;101639.56;5038402;28;20036;-69
2022/08/24 00:52:37;;;;;;;53.22;40.92;;;;;;;18.59;95.19;101645.66;5058565;28;20476;-68
2022/08/24 00:55:17;;;;;;;57.85;43.50;;;;;;;18.57;95.82;101647.03;5061331;28;20028;-69
2022/08/24 00:57:46;;;;;;;71.10;47.63;;;;;;;18.53;96.50;101643.09;5059929;28;20112;-69
2022/08/24 01:00:16;;;;;;;69.50;49.22;;;;;;;18.56;97.22;101643.41;5061117;28;20031;-69
2022/08/24 01:02:47;;;;;;;61.47;44.55;;;;;;;18.60;97.01;101650.13;5060575;28;20513;-69
2022/08/24 01:05:14;;;;;;;66.65;48.08;;;;;;;18.61;96.90;101648.19;5060320;28;20443;-68
2022/08/24 01:07:40;;;;;;;73.30;51.03;;;;;;;18.65;96.43;101647.41;5061267;28;20406;-69
2022/08/24 01:10:10;;;;;;;69.07;46.60;;;;;;;18.61;96.33;101637.91;5057487;28;20043;-68
2022/08/24 01:12:38;;;;;;;60.65;44.63;;;;;;;18.54;95.48;101634.47;5060041;28;20029;-69
2022/08/24 01:15:06;;;;;;;64.45;45.80;;;;;;;18.47;95.69;101636.66;5060446;28;20040;-68
2022/08/24 01:20:17;;;;;;;62.80;43.95;;;;;;;18.32;95.53;101639.28;5060886;28;20051;-68
2022/08/24 01:23:01;;;;;;;68.83;46.53;;;;;;;18.30;95.91;101636.78;5060944;28;20518;-69
2022/08/24 01:25:29;;;;;;;65.82;46.10;;;;;;;18.25;95.99;101638.66;5060379;28;20029;-68
2022/08/24 01:27:59;;;;;;;69.07;48.65;;;;;;;18.29;96.50;101637.88;5033635;28;20033;-69
2022/08/24 01:30:25;;;;;;;69.18;46.97;;;;;;;18.22;96.68;101637.25;5024665;28;20021;-69
2022/08/24 01:32:54;;;;;;;64.97;44.75;;;;;;;18.17;96.19;101642.75;5040903;28;20364;-69
2022/08/24 01:35:19;;;;;;;62.40;44.58;;;;;;;18.14;96.06;101638.53;5042778;28;20021;-69
2022/08/24 01:37:44;;;;;;;66.38;47.38;;;;;;;18.08;96.52;101631.25;5043981;28;20056;-69
2022/08/24 01:40:10;;;;;;;69.07;48.33;;;;;;;18.05;97.34;101631.81;5043540;28;20056;-69
2022/08/24 01:42:35;;;;;;;73.80;51.58;;;;;;;18.05;97.83;101630.97;5043514;28;20036;-69
2022/08/24 01:45:06;;;;;;;76.55;48.97;;;;;;;18.05;97.79;101629.03;5044075;28;20024;-68
2022/08/24 01:47:31;;;;;;;73.63;48.92;;;;;;;18.03;97.41;101622.88;5040499;28;20107;-69
2022/08/24 01:49:57;;;;;;;76.68;49.08;;;;;;;18.00;97.03;101620.63;5023646;28;20068;-69
2022/08/24 01:52:24;;;;;;;66.72;46.08;;;;;;;17.94;97.02;101624.44;5024214;28;20082;-69
2022/08/24 01:54:50;;;;;;;65.90;43.75;;;;;;;17.90;96.57;101628.84;5023936;28;20041;-68
2022/08/24 01:57:16;;;;;;;76.45;50.15;;;;;;;17.86;97.43;101625.75;5023497;28;20029;-69
2022/08/24 01:59:41;;;;;;;76.50;49.92;;;;;;;17.87;97.63;101624.63;5024438;28;20127;-69
2022/08/24 02:02:12;;;;;;;57.58;39.28;;;;;;;17.80;96.45;101629.56;5022790;28;20365;-69
2022/08/24 02:04:38;;;;;;;62.85;42.92;;;;;;;17.84;97.81;101629.88;5034065;28;20045;-69
2022/08/24 02:07:03;;;;;;;78.65;48.63;;;;;;;17.88;98.21;101626.31;5043552;28;20456;-68
2022/08/24 02:09:28;;;;;;;74.80;48.63;;;;;;;17.95;97.81;101626.13;5043334;28;20056;-69
2022/08/24 02:11:54;;;;;;;76.78;50.13;;;;;;;17.95;97.71;101631.69;5025374;28;20036;-69
2022/08/24 02:14:20;;;;;;;62.65;42.47;;;;;;;17.89;96.81;101624.38;5043514;28;20833;-69
2022/08/24 02:16:45;;;;;;;64.72;44.70;;;;;;;17.81;96.49;101620.13;5043778;28;20387;-69
2022/08/24 02:19:11;;;;;;;60.75;41.17;;;;;;;17.75;95.96;101626.75;5043048;28;20025;-69
2022/08/24 02:21:37;;;;;;;61.83;42.95;;;;;;;17.66;96.48;101627.41;5058230;28;20032;-68
2022/08/24 02:24:03;;;;;;;59.28;43.35;;;;;;;17.59;96.67;101627.63;5062586;28;20071;-69
2022/08/24 02:26:28;;;;;;;67.82;44.85;;;;;;;17.56;97.28;101634.53;5063576;28;20052;-68
2022/08/24 02:28:54;;;;;;;62.85;44.08;;;;;;;17.60;97.49;101638.47;5044414;28;20485;-69
2022/08/24 02:31:19;;;;;;;78.55;51.47;;;;;;;17.63;98.22;101653.75;5063350;28;20055;-69
2022/08/24 02:33:44;;;;;;;73.97;48.97;;;;;;;17.69;98.03;101651.88;5063118;28;20356;-69
2022/08/24 02:36:11;;;;;;;73.15;48.85;;;;;;;17.73;97.86;101653.91;5062759;28;20271;-69
2022/08/24 02:38:37;;;;;;;72.20;48.05;;;;;;;17.70;97.21;101653.59;5027915;28;20105;-69
2022/08/24 02:41:02;;;;;;;77.32;50.20;;;;;;;17.74;97.80;101651.97;5022342;28;20495;-69
2022/08/24 02:43:28;;;;;;;66.25;45.42;;;;;;;17.68;97.31;101653.00;5022622;28;20014;-69
2022/08/24 02:45:53;;;;;;;72.57;44.83;;;;;;;17.60;97.21;101657.91;5022343;28;20049;-68
2022/08/24 02:48:19;;;;;;;75.32;48.63;;;;;;;17.56;97.06;101651.19;5022799;28;20663;-68
2022/08/24 02:50:48;;;;;;;78.57;51.28;;;;;;;17.49;97.73;101650.53;5023184;28;20041;-69
2022/08/24 02:53:14;;;;;;;73.70;50.22;;;;;;;17.45;97.72;101654.94;5026860;28;20013;-69
2022/08/24 02:55:42;;;;;;;75.03;50.25;;;;;;;17.44;98.05;101649.66;5023013;28;20048;-69
2022/08/24 02:58:09;;;;;;;82.23;55.03;;;;;;;17.46;98.75;101644.66;5021772;28;20044;-69
2022/08/24 03:00:35;;;;;;;82.97;54.50;;;;;;;17.43;98.77;101651.56;5023226;28;20276;-69
2022/08/24 03:03:01;;;;;;;82.28;53.92;;;;;;;17.43;99.16;101643.22;5022373;28;20017;-69
2022/08/24 03:05:27;;;;;;;76.43;50.08;;;;;;;17.40;98.63;101648.47;5022554;28;20163;-69
2022/08/24 03:07:52;;;;;;;68.93;47.33;;;;;;;17.39;98.27;101647.63;5004553;28;20025;-69
2022/08/24 03:10:18;;;;;;;74.97;52.45;;;;;;;17.43;98.57;101645.16;5023507;28;20021;-69
2022/08/24 03:12:43;;;;;;;75.35;50.05;;;;;;;17.42;98.16;101643.50;5060584;28;20025;-69
2022/08/24 03:15:10;;;;;;;77.88;52.60;;;;;;;17.36;98.03;101646.19;5061928;28;20290;-69
2022/08/24 03:17:37;;;;;;;72.90;45.70;;;;;;;17.27;96.87;101641.34;5062748;28;20111;-69
2022/08/24 03:20:05;;;;;;;72.65;46.05;;;;;;;17.26;97.96;101645.22;5061239;28;20021;-69
2022/08/24 03:22:30;;;;;;;74.32;46.97;;;;;;;17.25;97.26;101647.16;5062198;28;20128;-69
2022/08/24 03:24:56;;;;;;;76.32;49.40;;;;;;;17.24;98.21;101639.94;5061865;28;20111;-69
2022/08/24 03:27:21;;;;;;;69.57;47.78;;;;;;;17.20;97.56;101635.97;5059066;28;20050;-69
2022/08/24 03:29:47;;;;;;;78.32;51.20;;;;;;;17.18;98.05;101640.09;5026762;28;20116;-68
2022/08/24 03:32:12;;;;;;;74.17;48.37;;;;;;;17.11;97.59;101635.56;5008540;28;20083;-69
2022/08/24 03:34:37;;;;;;;66.50;45.92;;;;;;;17.11;97.60;101641.13;5022412;28;20773;-69
2022/08/24 03:37:03;;;;;;;66.88;45.75;;;;;;;17.13;98.07;101638.06;5021104;28;20242;-69
2022/08/24 03:39:28;;;;;;;74.43;49.17;;;;;;;17.16;98.39;101636.75;5022284;28;20364;-69
2022/08/24 03:41:53;;;;;;;83.60;54.40;;;;;;;17.14;98.86;101637.00;5020899;28;20454;-69
2022/08/24 03:44:19;;;;;;;80.45;52.53;;;;;;;17.17;99.05;101627.31;5021842;28;20304;-69
2022/08/24 03:46:45;;;;;;;68.55;47.35;;;;;;;17.12;98.27;101637.25;5022264;28;20041;-69
2022/08/24 03:49:12;;;;;;;67.82;47.08;;;;;;;17.10;98.22;101636.66;5052439;28;20029;-69
2022/08/24 03:51:37;;;;;;;79.97;50.55;;;;;;;17.16;98.08;101636.75;5061597;28;20037;-69
2022/08/24 03:54:05;;;;;;;81.80;52.17;;;;;;;17.16;98.52;101642.28;5043322;28;20609;-69
2022/08/24 03:56:31;;;;;;;94.13;58.90;;;;;;;17.18;99.12;101648.41;5062233;28;20028;-69
2022/08/24 03:58:56;;;;;;;83.82;54.92;;;;;;;17.15;98.90;101644.22;5060198;28;20066;-69
2022/08/24 04:01:21;;;;;;;78.65;53.85;;;;;;;17.14;99.02;101642.56;5061379;28;20531;-69
2022/08/24 04:03:47;;;;;;;78.20;51.55;;;;;;;17.12;99.53;101642.78;5062151;28;20021;-69
2022/08/24 04:06:16;;;;;;;81.95;54.33;;;;;;;17.10;100.00;101644.16;5046365;28;20055;-69
2022/08/24 04:08:42;;;;;;;85.65;53.10;;;;;;;17.07;99.14;101653.81;5041669;28;20411;-69
2022/08/24 04:11:19;;;;;;;87.88;58.35;;;;;;;17.04;100.00;101650.72;5040868;28;20021;-69
2022/08/24 04:13:46;;;;;;;94.95;56.95;;;;;;;16.97;99.23;101645.34;5040054;28;20356;-69
2022/08/24 04:16:14;;;;;;;96.87;55.70;;;;;;;16.98;98.77;101652.59;5041386;28;20483;-69
2022/08/24 04:18:40;;;;;;;96.30;58.23;;;;;;;16.95;99.07;101655.84;5041408;28;20028;-69
2022/08/24 04:21:14;;;;;;;90.18;56.72;;;;;;;16.96;99.27;101654.75;5041283;28;20070;-69
2022/08/24 04:23:39;;;;;;;88.93;54.53;;;;;;;16.89;98.88;101662.44;5043554;28;20020;-69
2022/08/24 04:26:05;;;;;;;85.10;54.60;;;;;;;16.88;99.25;101657.97;5061046;28;20467;-69
2022/08/24 04:28:30;;;;;;;86.05;54.03;;;;;;;16.85;99.19;101656.53;5060241;28;20154;-69
2022/08/24 04:30:56;;;;;;;89.60;54.13;;;;;;;16.82;99.36;101662.59;5061273;28;20027;-68
2022/08/24 04:33:22;;;;;;;83.97;53.38;;;;;;;16.81;99.09;101657.28;5061307;28;20023;-69
2022/08/24 04:35:47;;;;;;;81.45;51.40;;;;;;;16.78;98.98;101661.44;5061752;28;20071;-69
2022/08/24 04:38:15;;;;;;;84.47;54.55;;;;;;;16.73;98.88;101663.28;5060747;28;20092;-69
2022/08/24 04:40:43;;;;;;;91.03;58.22;;;;;;;16.70;99.25;101656.25;5047786;28;20029;-69
2022/08/24 04:43:08;;;;;;;89.10;57.72;;;;;;;16.69;99.09;101660.13;5020321;28;20423;-69
2022/08/24 04:45:39;;;;;;;87.80;54.10;;;;;;;16.69;98.93;101667.63;5021215;28;20068;-69
2022/08/24 04:48:05;;;;;;;88.07;54.80;;;;;;;16.68;99.10;101666.78;5020986;28;20049;-69
2022/08/24 04:50:34;;;;;;;95.05;55.88;;;;;;;16.71;99.63;101659.88;5021359;28;20503;-68
2022/08/24 04:52:59;;;;;;;92.18;64.85;;;;;;;16.66;98.89;101665.31;5020891;28;20585;-69
2022/08/24 04:55:24;;;;;;;93.63;57.63;;;;;;;16.64;100.00;101661.97;5021489;28;20033;-69
2022/08/24 04:57:49;;;;;;;95.77;60.50;;;;;;;16.63;100.00;101674.16;5050176;28;20352;-69
2022/08/24 05:00:15;;;;;;;119.38;67.55;;;;;;;16.61;100.00;101666.91;5059917;28;20317;-69
2022/08/24 05:02:40;;;;;;;110.82;64.47;;;;;;;16.57;100.00;101671.31;5061280;28;20514;-69
2022/08/24 05:05:07;;;;;;;123.17;67.20;;;;;;;16.54;100.00;101669.03;5060555;28;20104;-69
2022/08/24 05:07:33;;;;;;;115.43;67.57;;;;;;;16.55;100.00;101670.69;5060921;28;20277;-69
2022/08/24 05:09:58;;;;;;;100.10;61.92;;;;;;;16.56;100.00;101677.91;5061747;28;20119;-69
2022/08/24 05:12:24;;;;;;;88.47;60.03;;;;;;;16.61;100.00;101671.63;5064181;28;20197;-69
2022/08/24 05:14:49;;;;;;;89.13;59.80;;;;;;;16.63;100.00;101672.22;5043192;28;20496;-69
2022/08/24 05:17:14;;;;;;;89.87;59.77;;;;;;;16.73;100.00;101677.16;5024342;28;20045;-69
2022/08/24 05:19:40;;;;;;;90.28;59.45;;;;;;;16.71;100.00;101684.84;5024810;28;20272;-69
2022/08/24 05:22:05;;;;;;;87.95;57.80;;;;;;;16.73;100.00;101680.75;5006857;28;20491;-69
2022/08/24 05:24:30;;;;;;;85.90;57.08;;;;;;;16.78;100.00;101672.53;5024294;28;20026;-69
2022/08/24 05:26:56;;;;;;;85.20;57.65;;;;;;;16.84;100.00;101676.22;5023954;28;20033;-69
2022/08/24 05:29:21;;;;;;;95.57;59.17;;;;;;;16.93;100.00;101676.63;5024544;28;20029;-69
2022/08/24 05:31:47;;;;;;;89.10;56.38;;;;;;;16.95;100.00;101680.00;5024600;28;20376;-69
2022/08/24 05:34:13;;;;;;;89.85;57.17;;;;;;;17.00;100.00;101693.97;5023923;28;20601;-69
2022/08/24 05:36:39;;;;;;;86.70;56.88;;;;;;;17.10;100.00;101683.84;5024356;28;20029;-69
2022/08/24 05:39:08;;;;;;;92.75;61.10;;;;;;;17.13;100.00;101685.25;5023697;28;20076;-69
2022/08/24 05:41:34;;;;;;;90.68;58.22;;;;;;;17.18;100.00;101693.66;5023775;28;20037;-69
2022/08/24 05:43:59;;;;;;;88.55;58.22;;;;;;;17.22;100.00;101683.75;5024250;28;20384;-69
2022/08/24 05:46:25;;;;;;;89.65;58.90;;;;;;;17.25;100.00;101687.97;5023608;28;20285;-69
2022/08/24 05:48:50;;;;;;;92.93;60.72;;;;;;;17.29;100.00;101683.59;5035006;28;20483;-69
2022/08/24 05:51:16;;;;;;;101.00;61.15;;;;;;;17.34;100.00;101683.66;5064026;28;20024;-69
2022/08/24 05:53:41;;;;;;;98.75;61.95;;;;;;;17.40;100.00;101684.56;5063982;28;20421;-69
2022/08/24 05:56:12;;;;;;;101.90;65.30;;;;;;;17.44;100.00;101688.53;5063396;28;20411;-69
2022/08/24 05:58:38;;;;;;;93.82;60.22;;;;;;;17.47;100.00;101691.59;5063335;28;20028;-69
2022/08/24 06:01:17;;;;;;;88.10;57.00;;;;;;;17.54;100.00;101692.28;5063473;28;20013;-68
2022/08/24 06:03:42;;;;;;;76.45;54.85;;;;;;;17.57;100.00;101700.09;5063612;28;20107;-69
2022/08/24 06:06:09;;;;;;;83.05;58.10;;;;;;;17.64;100.00;101697.13;5061205;28;20131;-69
2022/08/24 06:08:37;;;;;;;77.67;55.83;;;;;;;17.74;100.00;101702.84;5062947;28;20032;-69
2022/08/24 06:11:02;;;;;;;64.70;53.07;;;;;;;17.85;100.00;101698.28;5063593;28;20506;-69
2022/08/24 06:13:28;;;;;;;58.45;49.78;;;;;;;17.91;100.00;101701.94;5062668;28;20037;-69
2022/08/24 06:16:10;;;;;;;55.03;47.72;;;;;;;18.00;100.00;101709.56;5063195;28;20031;-69
2022/08/24 06:18:36;;;;;;;52.50;45.88;;;;;;;18.04;100.00;101701.53;5063920;28;20024;-69
2022/08/24 06:21:11;;;;;;;47.08;41.97;;;;;;;18.11;100.00;101708.59;5061910;28;20605;-69
2022/08/24 06:23:38;;;;;;;45.38;40.65;;;;;;;18.18;100.00;101708.38;5059889;28;20025;-69
2022/08/24 06:28:48;;;;;;;45.33;40.67;;;;;;;18.32;100.00;101714.38;5063236;28;20039;-69
2022/08/24 06:31:14;;;;;;;47.67;42.88;;;;;;;18.37;100.00;101714.44;5063423;28;20024;-69
2022/08/24 06:33:39;;;;;;;50.10;44.75;;;;;;;18.47;100.00;101714.53;5063322;28;20358;-69
2022/08/24 06:36:05;;;;;;;50.85;45.60;;;;;;;18.56;100.00;101714.91;5062450;28;20029;-69
2022/08/24 06:38:30;;;;;;;45.50;40.95;;;;;;;18.60;100.00;101714.13;5063441;28;20090;-69
2022/08/24 06:40:56;;;;;;;50.67;45.67;;;;;;;18.68;100.00;101718.41;5041431;28;20113;-69
2022/08/24 06:43:23;;;;;;;53.55;48.17;;;;;;;18.78;100.00;101723.22;5022388;28;20033;-69
2022/08/24 06:45:49;;;;;;;59.08;53.15;;;;;;;18.88;100.00;101726.94;5023466;28;20083;-69
2022/08/24 06:48:15;;;;;;;57.28;51.70;;;;;;;18.95;100.00;101729.47;5023049;28;20113;-69
2022/08/24 06:50:40;;;;;;;59.58;53.83;;;;;;;19.06;100.00;101733.19;5022620;28;20104;-69
2022/08/24 06:53:05;;;;;;;70.03;63.10;;;;;;;19.25;100.00;101728.88;5022468;28;20047;-69
2022/08/24 06:55:31;;;;;;;74.35;66.70;;;;;;;19.45;100.00;101728.19;5023311;28;20033;-69
2022/08/24 06:57:56;;;;;;;70.35;62.97;;;;;;;19.57;100.00;101723.28;5024845;28;20122;-69
2022/08/24 07:00:22;;;;;;;64.25;57.70;;;;;;;19.69;100.00;101726.72;5044784;28;20029;-69
2022/08/24 07:02:47;;;;;;;65.47;58.28;;;;;;;19.85;100.00;101726.78;5043217;28;20040;-69
2022/08/24 07:05:13;;;;;;;64.63;57.83;;;;;;;20.47;100.00;101725.91;5042546;28;20025;-69
2022/08/24 07:07:39;;;;;;;59.63;53.25;;;;;;;22.30;97.38;101727.63;5042590;28;20079;-69
2022/08/24 07:10:07;;;;;;;52.08;45.22;;;;;;;23.53;86.64;101736.78;5042067;28;20423;-69
2022/08/24 07:12:32;;;;;;;48.60;40.40;;;;;;;24.38;80.98;101742.81;5042191;28;20043;-69
2022/08/24 07:14:58;;;;;;;43.92;37.88;;;;;;;24.78;77.06;101742.19;5043895;28;20028;-69
2022/08/24 07:17:23;;;;;;;40.35;36.05;;;;;;;24.40;77.38;101735.78;5042442;28;20128;-70
2022/08/24 07:19:49;;;;;;;43.27;37.53;;;;;;;24.05;78.93;101742.66;5042881;28;20258;-69
2022/08/24 07:22:15;;;;;;;43.75;39.22;;;;;;;23.84;80.80;101749.66;5042326;28;20634;-69
2022/08/24 07:24:40;;;;;;;42.30;37.70;;;;;;;23.64;81.46;101739.50;5042176;28;20036;-69
2022/08/24 07:27:05;;;;;;;49.53;39.78;;;;;;;23.33;82.21;101741.75;5040873;28;20017;-69
2022/08/24 07:29:31;;;;;;;43.58;38.90;;;;;;;23.05;82.31;101739.47;5042502;28;20025;-69
2022/08/24 07:31:57;;;;;;;41.83;37.38;;;;;;;22.88;84.91;101743.78;5039945;28;20578;-69
2022/08/24 07:34:22;;;;;;;41.85;37.53;;;;;;;23.01;84.44;101743.13;5060641;28;20038;-69
2022/08/24 07:36:49;;;;;;;39.47;35.47;;;;;;;22.95;81.95;101738.72;5062452;28;20031;-69
2022/08/24 07:39:15;;;;;;;38.07;33.97;;;;;;;22.79;82.86;101736.00;5061088;28;20052;-69
2022/08/24 07:41:42;;;;;;;38.60;34.58;;;;;;;22.72;81.11;101732.69;5061151;28;20491;-69
2022/08/24 07:44:09;;;;;;;37.83;31.80;;;;;;;22.65;80.74;101734.97;5059896;28;20024;-69
2022/08/24 07:46:35;;;;;;;36.22;32.33;;;;;;;22.61;82.10;101735.84;5061999;28;20690;-69
2022/08/24 07:49:00;;;;;;;33.83;30.27;;;;;;;22.66;80.79;101733.88;5061349;28;20052;-69
2022/08/24 07:51:26;;;;;;;33.17;28.58;;;;;;;22.68;80.05;101731.59;5027284;28;20032;-69
2022/08/24 07:53:51;;;;;;;28.85;25.73;;;;;;;22.73;78.63;101723.16;5021891;28;20025;-69
2022/08/24 07:56:16;;;;;;;28.48;25.45;;;;;;;22.82;78.07;101729.00;5020778;28;20570;-69
2022/08/24 07:58:42;;;;;;;28.13;25.20;;;;;;;22.91;77.26;101732.88;5022065;28;20026;-69
2022/08/24 08:01:08;;;;;;;28.05;25.02;;;;;;;22.90;78.74;101741.56;5021173;28;20451;-69
2022/08/24 08:03:34;;;;;;;26.90;23.85;;;;;;;22.97;74.61;101731.69;5021405;28;20500;-69
2022/08/24 08:06:04;;;;;;;27.67;24.73;;;;;;;23.02;76.12;101736.44;5021549;28;20029;-69
2022/08/24 08:08:29;;;;;;;27.67;24.88;;;;;;;23.07;76.06;101742.00;5043874;28;20046;-70
2022/08/24 08:10:56;;;;;;;26.10;23.17;;;;;;;23.17;74.93;101746.66;5060801;28;20029;-68
2022/08/24 08:13:21;;;;;;;24.38;21.77;;;;;;;23.23;75.03;101742.69;5061128;28;20454;-69
2022/08/24 08:15:47;;;;;;;25.38;22.20;;;;;;;23.25;74.67;101751.63;5061995;28;20024;-69
2022/08/24 08:18:13;;;;;;;26.73;21.55;;;;;;;23.33;75.08;101747.38;5060730;28;20066;-69
2022/08/24 08:20:39;;;;;;;22.75;20.45;;;;;;;23.38;73.58;101744.50;5061662;28;20078;-69
2022/08/24 08:25:53;;;;;;;21.70;19.40;;;;;;;23.61;69.66;101749.28;5059575;28;20085;-70
2022/08/24 08:28:18;;;;;;;22.35;18.70;;;;;;;23.68;70.02;101751.81;5061003;28;20198;-69
2022/08/24 08:30:44;;;;;;;21.40;17.48;;;;;;;23.77;71.33;101758.41;5061351;28;20471;-70
2022/08/24 08:33:11;;;;;;;22.50;17.58;;;;;;;23.94;69.74;101755.16;5060260;28;20043;-69
2022/08/24 08:35:36;;;;;;;19.90;17.75;;;;;;;24.05;68.06;101751.09;5061462;28;20031;-69
2022/08/24 08:38:02;;;;;;;22.80;18.60;;;;;;;24.10;66.92;101742.59;5061031;28;20379;-69
2022/08/24 08:40:55;;;;;;;19.17;16.75;;;;;;;24.18;68.38;101749.50;5057143;28;20216;-69
2022/08/24 08:43:43;;;;;;;21.25;16.90;;;;;;;24.27;66.93;101750.50;5021539;28;20052;-69
2022/08/24 08:46:49;;;;;;;19.33;16.48;;;;;;;24.51;66.75;101753.31;5016055;28;20404;-69
2022/08/24 08:49:50;;;;;;;16.87;13.63;;;;;;;24.72;67.34;101754.66;5025501;28;20160;-69
2022/08/24 08:52:27;;;;;;;20.40;15.40;;;;;;;24.90;65.60;101749.34;5003077;28;20056;-69
2022/08/24 08:55:13;;;;;;;19.48;14.85;;;;;;;25.00;64.70;101749.19;5024934;28;20223;-69
2022/08/24 08:57:38;;;;;;;16.80;12.55;;;;;;;25.12;63.36;101749.56;5024582;28;20083;-69
2022/08/24 09:00:21;;;;;;;16.20;10.75;;;;;;;25.38;64.08;101749.13;5054884;28;20017;-69
2022/08/24 09:03:01;;;;;;;11.88;10.10;;;;;;;25.86;61.85;101749.66;5065574;28;20498;-69
2022/08/24 09:05:46;;;;;;;18.88;12.73;;;;;;;27.06;58.91;101749.19;5065063;28;20029;-69
2022/08/24 09:08:11;;;;;;;17.35;13.27;;;;;;;29.26;51.29;101739.94;5064423;28;20522;-69
2022/08/24 09:11:26;;;;;;;16.92;11.93;;;;;;;31.03;48.97;101750.50;5064902;28;20066;-69
2022/08/24 09:14:13;;;;;;;14.70;11.27;;;;;;;33.35;41.94;101756.13;5019093;28;20047;-70
2022/08/24 09:17:07;;;;;;;16.42;11.27;;;;;;;34.81;43.09;101758.97;5054758;28;20613;-69
2022/08/24 09:19:55;;;;;;;13.48;9.10;;;;;;;35.94;34.21;101753.91;5044391;28;20032;-67
2022/08/24 09:22:21;;;;;;;13.10;8.80;;;;;;;36.20;32.52;101749.41;5044655;28;20053;-67
2022/08/24 09:24:54;;;;;;;11.52;8.25;;;;;;;36.82;35.53;101767.06;5044684;28;20514;-67
2022/08/24 09:27:52;;;;;;;14.38;7.90;;;;;;;37.19;35.91;101757.72;5044449;28;20383;-66
2022/08/24 09:30:22;;;;;;;12.63;7.78;;;;;;;36.85;32.27;101758.53;5044838;28;20028;-66
2022/08/24 09:33:06;;;;;;;14.25;8.18;;;;;;;35.96;36.21;101754.31;5044920;28;20472;-66
2022/08/24 09:35:48;;;;;;;13.40;8.90;;;;;;;34.98;37.61;101760.59;5033964;28;20025;-66
2022/08/24 09:38:28;;;;;;;13.30;8.88;;;;;;;34.44;37.50;101753.66;5022894;28;20025;-68
2022/08/24 09:41:30;;;;;;;11.82;7.25;;;;;;;34.70;37.84;101750.19;5023856;28;20468;-68
2022/08/24 09:44:01;;;;;;;12.25;6.55;;;;;;;33.64;37.22;101754.91;5024160;28;20038;-68
2022/08/24 09:47:01;;;;;;;12.18;6.45;;;;;;;33.23;41.67;101757.00;5024279;28;20021;-67
2022/08/24 09:49:54;;;;;;;11.13;6.10;;;;;;;32.36;43.26;101757.63;5023897;28;20057;-68
2022/08/24 09:52:26;;;;;;;10.80;5.68;;;;;;;31.68;43.63;101748.78;5024072;28;20052;-68
2022/08/24 09:55:19;;;;;;;10.27;5.63;;;;;;;31.59;44.21;101751.75;5023676;28;20033;-69
2022/08/24 09:58:22;;;;;;;12.45;5.72;;;;;;;33.17;41.55;101755.63;5022764;28;20128;-67
2022/08/24 10:00:54;;;;;;;8.63;5.22;;;;;;;34.77;35.49;101752.34;5024358;28;20112;-68
2022/08/24 10:03:34;;;;;;;8.90;4.72;;;;;;;36.06;36.38;101753.69;5024260;28;20029;-68
2022/08/24 10:06:10;;;;;;;9.73;5.03;;;;;;;37.28;30.96;101755.38;5023967;28;20045;-67
2022/08/24 10:09:04;;;;;;;8.57;3.97;;;;;;;37.79;31.19;101754.69;5023814;28;20056;-67
2022/08/24 10:12:05;;;;;;;8.05;3.70;;;;;;;37.98;33.79;101757.34;5023190;28;20108;-68
2022/08/24 10:14:55;;;;;;;9.57;3.53;;;;;;;38.31;30.88;101749.81;5012776;28;20394;-68
2022/08/24 10:17:38;;;;;;;10.25;3.72;;;;;;;38.01;31.08;101747.09;5023224;28;20026;-68
2022/08/24 10:20:17;;;;;;;7.95;3.13;;;;;;;38.22;29.90;101737.81;5023319;28;20026;-68
2022/08/24 10:23:24;;;;;;;8.60;3.50;;;;;;;39.45;30.13;101741.72;5023494;28;20411;-68
2022/08/24 10:26:30;;;;;;;9.02;4.15;;;;;;;40.44;28.09;101735.09;5023038;28;20033;-68
2022/08/24 10:29:04;;;;;;;6.28;3.40;;;;;;;40.96;24.74;101726.75;5042192;28;20033;-68
2022/08/24 10:31:42;;;;;;;5.60;2.85;;;;;;;41.96;24.80;101730.97;5042845;28;20116;-68
2022/08/24 10:34:41;;;;;;;5.07;2.55;;;;;;;41.70;25.74;101730.34;5042842;28;20071;-68
2022/08/24 10:37:24;;;;;;;7.38;2.53;;;;;;;41.64;25.65;101728.38;5043252;28;20074;-68
2022/08/24 10:40:11;;;;;;;6.85;2.40;;;;;;;41.75;25.42;101734.84;5043294;28;20432;-68
2022/08/24 10:46:17;;;;;;;5.68;2.50;;;;;;;41.74;24.70;101725.38;5062798;28;20548;-69
2022/08/24 10:49:06;;;;;;;5.32;2.38;;;;;;;40.85;26.55;101716.47;5063442;28;20360;-68
2022/08/24 10:51:56;;;;;;;4.03;1.52;;;;;;;39.61;27.17;101713.38;5063475;28;20104;-68
2022/08/24 10:54:22;;;;;;;3.17;1.50;;;;;;;37.95;27.89;101725.75;5062219;28;20174;-68
2022/08/24 10:57:04;;;;;;;2.75;1.60;;;;;;;36.61;30.51;101716.91;5062939;28;20032;-68
2022/08/24 10:59:55;;;;;;;5.57;1.85;;;;;;;34.85;33.20;101711.38;5062113;28;20592;-68
2022/08/24 11:02:30;;;;;;;5.28;2.60;;;;;;;33.62;33.00;101708.88;5012955;28;20045;-69
2022/08/24 11:05:00;;;;;;;6.25;2.42;;;;;;;32.62;34.89;101716.56;5022143;28;20037;-67
2022/08/24 11:07:26;;;;;;;4.93;2.60;;;;;;;31.96;37.79;101706.34;5022435;28;20419;-68
2022/08/24 11:09:56;;;;;;;4.90;2.67;;;;;;;31.50;37.52;101703.56;5022322;28;20033;-68
2022/08/24 11:12:36;;;;;;;5.93;3.05;;;;;;;31.62;37.77;101702.75;5022197;28;20017;-68
2022/08/24 11:15:17;;;;;;;5.75;2.80;;;;;;;32.19;36.79;101709.50;5022290;28;20057;-68
2022/08/24 11:18:01;;;;;;;7.10;2.60;;;;;;;33.19;35.68;101698.31;5026808;28;20083;-67
2022/08/24 11:20:45;;;;;;;8.55;2.83;;;;;;;34.28;34.18;101698.69;5023191;28;20107;-67
2022/08/24 11:23:22;;;;;;;8.50;2.88;;;;;;;34.84;35.00;101695.44;5022275;28;20063;-67
2022/08/24 11:26:02;;;;;;;7.03;2.60;;;;;;;34.75;33.35;101697.69;5021101;28;20040;-67
2022/08/24 11:28:39;;;;;;;6.18;3.03;;;;;;;34.47;34.26;101697.91;5022304;28;20059;-67
2022/08/24 11:31:13;;;;;;;6.35;3.08;;;;;;;33.97;35.27;101694.72;5021840;28;20033;-67
2022/08/24 11:33:48;;;;;;;6.75;3.20;;;;;;;33.72;38.16;101691.22;5025352;28;20087;-68
2022/08/24 11:36:24;;;;;;;8.05;3.40;;;;;;;33.64;37.11;101686.53;5061773;28;20070;-68